createdAt,value
2022-09-27T00:47:37.099Z,2.40
2022-09-27T00:50:13.681Z,1.90
2022-09-27T00:52:49.695Z,2.13
2022-09-27T00:55:23.551Z,2.35
2022-09-27T00:57:52.999Z,2.05
2022-09-27T01:00:23.519Z,2.10
2022-09-27T01:45:21.722Z,1.75
2022-09-27T01:48:05.379Z,1.80
2022-09-27T01:51:02.034Z,2.22
2022-09-27T01:53:35.729Z,1.90
2022-09-27T01:56:28.327Z,1.70
2022-09-27T01:59:08.715Z,2.40
2022-09-27T02:45:43.874Z,1.70
2022-09-27T02:48:24.397Z,1.80
2022-09-27T02:51:19.586Z,1.70
2022-09-27T02:54:07.846Z,1.58
2022-09-27T02:57:10.669Z,1.70
2022-09-27T03:00:01.933Z,1.80
2022-09-27T03:46:39.060Z,1.65
2022-09-27T03:49:08.356Z,1.63
2022-09-27T03:51:37.272Z,1.60
2022-09-27T03:54:06.326Z,1.92
2022-09-27T03:56:34.633Z,1.83
2022-09-27T03:59:03.677Z,1.70
2022-09-27T04:30:15.953Z,4.75
2022-09-27T04:33:07.338Z,4.45
2022-09-27T04:36:13.277Z,4.10
2022-09-27T04:38:49.232Z,4.25
2022-09-27T04:41:23.313Z,4.07
2022-09-27T04:43:55.425Z,3.72
2022-09-27T04:46:31.821Z,3.50
2022-09-27T04:49:01.951Z,3.30
2022-09-27T04:51:32.500Z,3.20
2022-09-27T04:54:01.988Z,2.33
2022-09-27T04:56:48.840Z,2.10
2022-09-27T04:59:17.775Z,1.90
2022-09-27T05:01:48.123Z,2.08
2022-09-27T05:04:38.914Z,2.05
2022-09-27T05:07:09.495Z,2.05
2022-09-27T05:09:45.244Z,2.10
2022-09-27T05:12:13.981Z,2.15
2022-09-27T05:14:48.251Z,1.80
2022-09-27T05:17:18.732Z,2.00
2022-09-27T05:20:11.352Z,1.90
2022-09-27T05:23:00.271Z,1.98
2022-09-27T05:25:29.063Z,2.10
2022-09-27T05:27:57.576Z,1.95
2022-09-27T05:30:27.433Z,2.00
2022-09-27T05:33:07.514Z,1.92
2022-09-27T05:35:59.667Z,2.08
2022-09-27T05:38:31.694Z,1.92
2022-09-27T05:41:04.010Z,1.92
2022-09-27T05:43:32.879Z,1.90
2022-09-27T05:46:05.465Z,1.90
2022-09-27T05:48:37.021Z,2.13
2022-09-27T05:51:08.600Z,2.05
2022-09-27T05:53:40.230Z,1.90
2022-09-27T05:56:15.288Z,2.00
2022-09-27T05:59:16.723Z,2.10
2022-09-27T06:02:03.741Z,1.60
2022-09-27T06:04:55.088Z,1.83
2022-09-27T06:07:41.618Z,1.67
2022-09-27T06:10:18.766Z,1.90
2022-09-27T06:12:47.887Z,2.30
2022-09-27T06:15:35.129Z,1.92
2022-09-27T06:18:06.242Z,1.98
2022-09-27T06:20:38.058Z,1.90
2022-09-27T06:23:09.322Z,2.00
2022-09-27T06:25:40.143Z,2.15
2022-09-27T06:28:23.723Z,1.70
2022-09-27T06:31:01.658Z,2.10
2022-09-27T06:33:49.137Z,2.00
2022-09-27T06:36:19.440Z,1.50
2022-09-27T06:38:49.795Z,1.80
2022-09-27T06:41:44.347Z,2.08
2022-09-27T06:44:28.722Z,1.80
2022-09-27T06:47:16.198Z,1.73
2022-09-27T06:50:05.602Z,1.92
2022-09-27T06:52:37.085Z,1.77
2022-09-27T06:55:07.405Z,1.80
2022-09-27T06:57:53.587Z,1.98
2022-09-27T07:00:26.580Z,1.88
2022-09-27T07:03:04.693Z,1.80
2022-09-27T07:06:01.473Z,1.50
2022-09-27T07:08:43.238Z,1.52
2022-09-27T07:11:12.701Z,1.52
2022-09-27T07:13:43.536Z,1.92
2022-09-27T07:16:14.410Z,1.75
2022-09-27T07:18:43.556Z,1.60
2022-09-27T07:21:13.511Z,1.67
2022-09-27T07:23:43.325Z,1.42
2022-09-27T07:26:14.499Z,1.83
2022-09-27T07:28:45.013Z,1.90
2022-09-27T07:31:18.071Z,1.67
2022-09-27T07:33:47.072Z,1.60
2022-09-27T07:36:15.915Z,1.50
2022-09-27T07:38:48.456Z,1.80
2022-09-27T07:41:19.995Z,1.40
2022-09-27T07:43:49.229Z,1.50
2022-09-27T07:46:18.089Z,1.58
2022-09-27T07:49:05.647Z,1.50
2022-09-27T07:51:51.996Z,1.58
2022-09-27T07:54:32.266Z,1.60
2022-09-27T07:57:14.800Z,1.73
2022-09-27T07:59:52.038Z,1.48
2022-09-27T08:02:22.672Z,1.52
2022-09-27T08:04:52.690Z,1.48
2022-09-27T08:07:21.508Z,1.55
2022-09-27T08:09:54.890Z,1.35
2022-09-27T08:12:24.287Z,1.52
2022-09-27T08:14:53.154Z,1.42
2022-09-27T08:17:22.279Z,1.65
2022-09-27T08:20:21.052Z,1.40
2022-09-27T08:23:05.425Z,1.45
2022-09-27T08:25:41.652Z,1.70
2022-09-27T08:28:30.212Z,1.38
2022-09-27T08:31:05.018Z,1.55
2022-09-27T08:33:40.487Z,1.70
2022-09-27T08:36:13.314Z,1.48
2022-09-27T08:38:42.435Z,1.25
2022-09-27T08:41:22.312Z,1.45
2022-09-27T08:44:05.086Z,1.48
2022-09-27T08:46:47.984Z,1.40
2022-09-27T08:49:25.156Z,1.60
2022-09-27T08:51:56.560Z,1.45
2022-09-27T08:54:30.218Z,1.60
2022-09-27T08:57:05.822Z,1.25
2022-09-27T08:59:41.465Z,1.40
2022-09-27T09:02:20.403Z,1.20
2022-09-27T09:04:57.697Z,1.30
2022-09-27T09:07:49.692Z,1.60
2022-09-27T09:10:51.061Z,1.50
2022-09-27T09:13:35.897Z,1.30
2022-09-27T09:16:18.638Z,1.48
2022-09-27T09:19:11.002Z,1.40
2022-09-27T09:22:11.486Z,1.40
2022-09-27T09:24:54.088Z,1.60
2022-09-27T09:27:37.278Z,1.33
2022-09-27T09:30:21.691Z,1.40
2022-09-27T09:33:16.561Z,1.33
2022-09-27T09:35:51.462Z,1.30
2022-09-27T09:38:25.104Z,1.30
2022-09-27T09:41:01.240Z,1.25
2022-09-27T09:43:36.380Z,1.40
2022-09-27T09:46:13.863Z,1.15
2022-09-27T09:48:50.105Z,1.38
2022-09-27T09:51:23.454Z,1.25
2022-09-27T09:53:59.146Z,1.30
2022-09-27T09:56:37.482Z,1.17
2022-09-27T09:59:13.757Z,1.20
2022-09-27T10:01:48.058Z,1.30
2022-09-27T10:04:23.326Z,1.30
2022-09-27T10:06:54.225Z,1.50
2022-09-27T10:09:25.708Z,1.45
2022-09-27T10:12:12.955Z,1.33
2022-09-27T10:14:46.365Z,1.35
2022-09-27T10:17:20.993Z,1.05
2022-09-27T10:19:54.212Z,1.27
2022-09-27T10:22:31.216Z,1.33
2022-09-27T10:25:07.944Z,1.40
2022-09-27T10:27:49.579Z,1.55
2022-09-27T10:30:28.726Z,1.20
2022-09-27T10:33:04.116Z,1.23
2022-09-27T10:35:45.703Z,1.30
2022-09-27T10:38:38.074Z,1.40
2022-09-27T10:41:26.637Z,1.33
2022-09-27T10:44:25.841Z,1.23
2022-09-27T10:47:16.487Z,1.17
2022-09-27T10:50:49.189Z,1.52
2022-09-27T10:53:25.372Z,1.48
2022-09-27T10:56:05.326Z,1.60
2022-09-27T10:58:37.726Z,1.42
2022-09-27T11:01:12.735Z,1.50
2022-09-27T11:04:02.001Z,1.40
2022-09-27T11:06:38.033Z,1.70
2022-09-27T11:09:19.972Z,1.70
2022-09-27T11:11:50.852Z,1.33
2022-09-27T11:14:23.183Z,1.70
2022-09-27T11:17:13.776Z,1.40
2022-09-27T11:20:08.887Z,1.65
2022-09-27T11:23:19.070Z,1.48
2022-09-27T11:26:11.860Z,1.48
2022-09-27T11:28:57.174Z,1.70
2022-09-27T11:32:09.886Z,1.55
2022-09-27T11:35:11.663Z,1.40
2022-09-27T11:37:53.555Z,1.40
2022-09-27T11:40:36.372Z,1.35
2022-09-27T11:43:27.075Z,1.40
2022-09-27T11:46:18.170Z,1.75
2022-09-27T11:49:13.766Z,1.42
2022-09-27T11:52:03.447Z,1.33
2022-09-27T11:54:56.239Z,1.50
2022-09-27T11:57:31.663Z,1.48
2022-09-27T12:00:20.684Z,1.50
2022-09-27T12:03:26.589Z,1.30
2022-09-27T12:06:07.827Z,1.38
2022-09-27T12:08:58.407Z,1.50
2022-09-27T12:11:34.310Z,1.42
2022-09-27T12:14:07.154Z,1.65
2022-09-27T12:16:38.301Z,1.30
2022-09-27T12:19:18.217Z,1.30
2022-09-27T12:22:06.368Z,1.42
2022-09-27T12:24:39.684Z,1.50
2022-09-27T12:27:35.368Z,1.25
2022-09-27T12:30:06.474Z,2.17
2022-09-27T12:32:45.592Z,2.22
2022-09-27T12:35:22.358Z,2.20
2022-09-27T12:37:59.381Z,2.60
2022-09-27T12:40:32.676Z,2.40
2022-09-27T12:43:13.668Z,2.58
2022-09-27T12:46:13.141Z,2.03
2022-09-27T12:48:48.796Z,1.95
2022-09-27T12:51:20.596Z,2.70
2022-09-27T12:54:11.390Z,2.20
2022-09-27T12:56:52.560Z,2.42
2022-09-27T12:59:44.072Z,2.15
2022-09-27T13:03:18.797Z,1.95
2022-09-27T13:06:27.820Z,2.28
2022-09-27T13:09:28.049Z,1.90
2022-09-27T13:12:10.847Z,2.05
2022-09-27T13:14:59.732Z,2.00
2022-09-27T13:17:54.555Z,2.20
2022-09-27T13:20:48.970Z,2.00
2022-09-27T13:24:01.503Z,1.80
2022-09-27T13:26:50.935Z,2.28
2022-09-27T13:29:34.733Z,1.88
2022-09-27T13:32:28.415Z,1.70
2022-09-27T13:35:20.349Z,1.50
2022-09-27T13:37:59.063Z,1.77
2022-09-27T13:40:44.259Z,1.83
2022-09-27T13:43:50.316Z,1.60
2022-09-27T13:46:53.302Z,1.83
2022-09-27T13:49:33.775Z,1.77
2022-09-27T13:52:33.846Z,1.88
2022-09-27T13:55:42.824Z,1.45
2022-09-27T13:58:51.436Z,1.45
2022-09-27T14:01:43.218Z,1.67
2022-09-27T14:04:20.392Z,1.70
2022-09-27T14:06:54.016Z,1.70
2022-09-27T14:09:27.531Z,1.60
2022-09-27T14:12:14.108Z,1.70
2022-09-27T14:14:43.815Z,1.40
2022-09-27T14:17:12.798Z,1.50
2022-09-27T14:19:45.231Z,1.50
2022-09-27T14:22:16.984Z,1.65
2022-09-27T14:25:00.418Z,1.38
2022-09-27T14:27:38.444Z,1.40
2022-09-27T14:30:17.964Z,1.50
2022-09-27T14:32:55.349Z,1.45
2022-09-27T14:36:06.988Z,1.42
2022-09-27T14:38:38.511Z,1.50
2022-09-27T14:41:17.579Z,1.40
2022-09-27T14:43:50.696Z,1.50
2022-09-27T14:46:36.948Z,1.40
2022-09-27T14:49:20.033Z,1.67
2022-09-27T14:51:53.654Z,1.77
2022-09-27T14:54:26.593Z,1.50
2022-09-27T14:56:56.832Z,1.52
2022-09-27T14:59:31.018Z,1.45
2022-09-27T15:02:02.005Z,1.48
2022-09-27T15:04:33.036Z,1.48
2022-09-27T15:07:03.407Z,1.60
2022-09-27T15:09:33.443Z,1.25
2022-09-27T15:12:05.224Z,1.45
2022-09-27T15:14:41.331Z,1.60
2022-09-27T15:17:18.489Z,1.55
2022-09-27T15:20:02.378Z,1.40
2022-09-27T15:22:44.773Z,1.67
2022-09-27T15:25:24.797Z,1.30
2022-09-27T15:27:55.613Z,1.58
2022-09-27T15:30:30.263Z,1.50
2022-09-27T15:32:59.036Z,1.45
2022-09-27T15:35:33.155Z,1.80
2022-09-27T15:38:26.708Z,1.85
2022-09-27T15:41:14.670Z,1.40
2022-09-27T15:43:46.585Z,1.50
2022-09-27T15:46:37.561Z,1.65
2022-09-27T15:49:38.964Z,1.50
2022-09-27T15:52:07.791Z,1.48
2022-09-27T15:54:38.232Z,1.35
2022-09-27T15:57:07.758Z,1.30
2022-09-27T15:59:37.641Z,1.40
2022-09-27T16:02:17.324Z,1.33
2022-09-27T16:04:46.132Z,1.30
2022-09-27T16:07:15.752Z,1.38
2022-09-27T16:09:45.159Z,1.35
2022-09-27T16:12:14.046Z,1.38
2022-09-27T16:14:42.731Z,1.40
2022-09-27T16:17:12.797Z,1.30
2022-09-27T16:19:41.774Z,1.45
2022-09-27T16:22:10.153Z,1.40
2022-09-27T16:24:38.579Z,1.63
2022-09-27T16:27:07.332Z,1.40
2022-09-27T16:29:35.496Z,1.30
2022-09-27T16:32:06.940Z,1.65
2022-09-27T16:34:36.809Z,1.85
2022-09-27T16:37:05.744Z,1.60
2022-09-27T16:39:33.986Z,1.60
2022-09-27T16:42:05.856Z,1.60
2022-09-27T16:44:36.225Z,1.70
2022-09-27T16:47:07.832Z,1.45
2022-09-27T16:49:55.030Z,1.20
2022-09-27T16:52:23.312Z,1.77
2022-09-27T16:54:51.795Z,1.30
2022-09-27T16:57:20.012Z,1.52
2022-09-27T16:59:48.322Z,1.30
2022-09-27T17:02:18.089Z,1.55
2022-09-27T17:04:47.969Z,1.30
2022-09-27T17:07:16.121Z,1.27
2022-09-27T17:09:45.271Z,1.20
2022-09-27T17:12:13.846Z,1.40
2022-09-27T17:14:42.799Z,1.38
2022-09-27T17:17:11.000Z,1.30
2022-09-27T17:19:39.429Z,1.40
2022-09-27T17:22:09.637Z,1.30
2022-09-27T17:24:38.073Z,1.30
2022-09-27T17:27:06.283Z,1.52
2022-09-27T17:29:34.524Z,1.80
2022-09-27T17:32:03.113Z,1.50
2022-09-27T17:34:32.127Z,1.38
2022-09-27T17:37:00.825Z,1.92
2022-09-27T17:39:30.364Z,3.83
2022-09-27T17:41:59.737Z,2.80
2022-09-27T17:44:28.210Z,3.05
2022-09-27T17:47:10.338Z,3.72
2022-09-27T17:49:55.375Z,4.25
2022-09-27T17:52:25.661Z,3.90
2022-09-27T17:54:57.548Z,3.50
2022-09-27T17:57:26.037Z,4.07
2022-09-27T17:59:54.709Z,3.92
2022-09-27T18:02:23.601Z,3.88
2022-09-27T18:04:52.004Z,4.18
2022-09-27T18:07:21.422Z,4.00
2022-09-27T18:09:51.417Z,4.78
2022-09-27T18:12:22.213Z,4.88
2022-09-27T18:14:50.876Z,4.95
2022-09-27T18:17:20.866Z,5.00
2022-09-27T18:19:49.438Z,4.60
2022-09-27T18:22:17.751Z,4.65
2022-09-27T18:24:46.958Z,3.97
2022-09-27T18:27:19.542Z,4.82
2022-09-27T18:29:49.031Z,3.95
2022-09-27T18:32:18.922Z,3.63
2022-09-27T18:34:47.497Z,4.03
2022-09-27T18:37:15.891Z,3.75
2022-09-27T18:39:44.218Z,3.53
2022-09-27T18:42:12.535Z,3.50
2022-09-27T18:44:40.916Z,3.10
2022-09-27T18:47:10.808Z,2.70
2022-09-27T18:49:39.443Z,2.65
2022-09-27T18:52:07.998Z,2.80
2022-09-27T18:54:38.353Z,3.15
2022-09-27T18:57:06.784Z,5.18
2022-09-27T18:59:34.913Z,5.07
2022-09-27T19:02:03.114Z,4.53
2022-09-27T19:04:33.041Z,5.28
2022-09-27T19:07:01.930Z,4.88
2022-09-27T19:09:31.308Z,6.28
2022-09-27T19:12:00.256Z,17.20
2022-09-27T19:14:29.941Z,12.23
2022-09-27T19:16:58.490Z,12.93
2022-09-27T19:19:27.102Z,12.27
2022-09-27T19:21:56.666Z,12.93
2022-09-27T19:24:25.551Z,13.65
2022-09-27T19:26:56.076Z,12.23
2022-09-27T19:29:24.968Z,11.57
2022-09-27T19:31:53.470Z,11.45
2022-09-27T19:34:22.634Z,11.43
2022-09-27T19:36:51.192Z,10.65
2022-09-27T19:39:21.492Z,11.65
2022-09-27T19:41:50.503Z,9.98
2022-09-27T19:44:19.064Z,11.38
2022-09-27T19:46:48.626Z,10.80
2022-09-27T19:49:18.947Z,10.18
2022-09-27T19:51:47.663Z,9.80
2022-09-27T19:54:16.535Z,10.10
2022-09-27T19:56:49.742Z,10.02
2022-09-27T19:59:18.803Z,10.00
2022-09-27T20:01:48.278Z,9.43
2022-09-27T20:04:16.860Z,9.30
2022-09-27T20:06:47.575Z,8.15
2022-09-27T20:09:18.626Z,8.77
2022-09-27T20:11:49.404Z,9.05
2022-09-27T20:14:19.086Z,9.52
2022-09-27T20:16:47.783Z,8.32
2022-09-27T20:19:16.621Z,9.07
2022-09-27T20:21:46.351Z,8.65
2022-09-27T20:24:14.852Z,9.38
2022-09-27T20:26:44.581Z,9.32
2022-09-27T20:29:14.240Z,8.80
2022-09-27T20:31:57.018Z,8.75
2022-09-27T20:34:31.685Z,7.97
2022-09-27T20:37:00.237Z,7.28
2022-09-27T20:39:29.534Z,6.95
2022-09-27T20:41:58.210Z,3.63
2022-09-27T20:44:28.201Z,2.92
2022-09-27T20:46:56.714Z,2.47
2022-09-27T20:49:25.936Z,2.63
2022-09-27T20:51:54.574Z,2.17
2022-09-27T20:54:22.707Z,2.10
2022-09-27T20:56:51.250Z,2.28
2022-09-27T20:59:22.093Z,2.20
2022-09-27T21:01:53.633Z,2.60
2022-09-27T21:04:24.121Z,2.38
2022-09-27T21:06:54.385Z,2.00
2022-09-27T21:09:22.947Z,2.40
2022-09-27T21:11:54.359Z,2.38
2022-09-27T21:14:22.804Z,2.42
2022-09-27T21:16:52.480Z,1.70
2022-09-27T21:19:21.145Z,1.90
2022-09-27T21:21:52.564Z,1.98
2022-09-27T21:24:20.869Z,1.75
2022-09-27T21:26:49.891Z,2.15
2022-09-27T21:29:18.880Z,1.85
2022-09-27T21:31:47.572Z,1.90
2022-09-27T21:34:17.677Z,2.20
2022-09-27T21:36:45.872Z,2.25
2022-09-27T21:39:15.541Z,2.08
2022-09-27T21:41:43.798Z,2.20
2022-09-27T21:44:13.085Z,2.00
2022-09-27T21:46:43.489Z,2.22
2022-09-27T21:49:12.017Z,1.90
2022-09-27T21:51:44.544Z,2.00
2022-09-27T21:54:16.367Z,2.22
2022-09-27T21:56:45.582Z,2.40
2022-09-27T21:59:18.525Z,1.95
2022-09-27T22:01:48.122Z,2.00
2022-09-27T22:04:16.571Z,2.03
2022-09-27T22:06:46.161Z,2.08
2022-09-27T22:09:17.305Z,1.70
2022-09-27T22:11:48.102Z,1.98
2022-09-27T22:14:18.301Z,1.75
2022-09-27T22:16:46.752Z,1.92
2022-09-27T22:19:16.672Z,1.88
2022-09-27T22:21:47.247Z,1.67
2022-09-27T22:24:19.823Z,1.63
2022-09-27T22:26:51.857Z,1.60
2022-09-27T22:29:21.053Z,2.20
2022-09-27T22:31:49.775Z,1.90
2022-09-27T22:34:29.010Z,1.77
2022-09-27T22:37:00.951Z,1.60
2022-09-27T22:39:30.812Z,1.80
2022-09-27T22:42:01.103Z,1.60
2022-09-27T22:44:30.296Z,1.90
2022-09-27T22:46:58.673Z,1.80
2022-09-27T22:49:26.911Z,2.00
2022-09-27T22:51:55.270Z,2.38
2022-09-27T22:54:25.267Z,2.53
2022-09-27T22:56:57.413Z,3.30
2022-09-27T22:59:27.061Z,3.50
2022-09-27T23:47:40.523Z,4.65
2022-09-27T23:50:11.072Z,4.57
2022-09-27T23:52:39.991Z,3.88
2022-09-27T23:55:12.124Z,3.65
2022-09-27T23:57:40.480Z,4.10
